createdAt,value
2019-02-11T00:00:49.274Z,82.86
2019-02-11T00:01:49.262Z,83.28
2019-02-11T00:02:49.259Z,83.90
2019-02-11T00:03:49.243Z,83.28
2019-02-11T00:04:49.229Z,82.45
2019-02-11T00:05:49.219Z,83.59
2019-02-11T00:06:49.207Z,84.21
2019-02-11T00:07:49.198Z,83.48
2019-02-11T00:08:49.201Z,82.76
2019-02-11T00:09:49.175Z,84.63
2019-02-11T00:10:49.168Z,83.69
2019-02-11T00:11:49.157Z,84.21
2019-02-11T00:12:49.146Z,82.55
2019-02-11T00:13:49.136Z,83.38
2019-02-11T00:14:49.140Z,83.17
2019-02-11T00:15:49.123Z,83.28
2019-02-11T00:16:49.104Z,82.24
2019-02-11T00:17:49.097Z,82.03
2019-02-11T00:18:49.082Z,83.17
2019-02-11T00:19:49.078Z,82.97
2019-02-11T00:20:49.073Z,82.55
2019-02-11T00:21:49.106Z,83.59
2019-02-11T00:22:49.040Z,83.38
2019-02-11T00:23:49.036Z,83.28
2019-02-11T00:24:49.022Z,83.07
2019-02-11T00:25:49.010Z,82.55
2019-02-11T00:26:49.110Z,82.97
2019-02-11T00:27:48.987Z,82.86
2019-02-11T00:28:48.981Z,83.90
2019-02-11T00:29:48.968Z,81.41
2019-02-11T00:30:48.958Z,82.55
2019-02-11T00:31:48.946Z,81.62
2019-02-11T00:32:49.025Z,82.65
2019-02-11T00:33:48.926Z,82.97
2019-02-11T00:34:48.920Z,83.07
2019-02-11T00:35:48.907Z,82.55
2019-02-11T00:36:48.894Z,82.97
2019-02-11T00:37:48.885Z,82.34
2019-02-11T00:38:48.888Z,84.42
2019-02-11T00:39:48.865Z,84.31
2019-02-11T00:40:48.853Z,83.90
2019-02-11T00:41:48.844Z,83.28
2019-02-11T00:42:48.832Z,84.73
2019-02-11T00:43:48.827Z,84.00
2019-02-11T00:44:48.826Z,85.71
2019-02-11T00:45:48.804Z,85.71
2019-02-11T00:46:48.791Z,86.74
2019-02-11T00:47:48.782Z,86.22
2019-02-11T00:48:48.769Z,85.19
2019-02-11T00:49:48.757Z,83.53
2019-02-11T00:50:48.778Z,83.22
2019-02-11T00:51:48.736Z,84.25
2019-02-11T00:52:48.730Z,85.91
2019-02-11T00:53:48.722Z,84.15
2019-02-11T00:54:48.717Z,84.25
2019-02-11T00:55:48.698Z,84.77
2019-02-11T00:56:48.701Z,83.42
2019-02-11T00:57:48.675Z,83.22
2019-02-11T00:58:48.666Z,82.65
2019-02-11T00:59:48.659Z,84.67
2019-02-11T01:00:48.641Z,83.32
2019-02-11T01:01:48.633Z,82.14
2019-02-11T01:02:48.634Z,83.69
2019-02-11T01:03:48.614Z,81.20
2019-02-11T01:04:48.608Z,82.34
2019-02-11T01:05:48.592Z,82.45
2019-02-11T01:06:48.582Z,82.49
2019-02-11T01:07:48.578Z,83.53
2019-02-11T01:08:48.595Z,80.06
2019-02-11T01:09:48.550Z,81.30
2019-02-11T01:10:48.540Z,81.30
2019-02-11T01:11:48.528Z,81.41
2019-02-11T01:12:48.515Z,80.41
2019-02-11T01:13:48.509Z,80.58
2019-02-11T01:14:48.524Z,81.51
2019-02-11T01:15:48.486Z,80.79
2019-02-11T01:16:48.479Z,79.75
2019-02-11T01:17:48.467Z,80.89
2019-02-11T01:18:48.457Z,80.79
2019-02-11T01:19:48.444Z,81.82
2019-02-11T01:20:48.448Z,82.34
2019-02-11T01:21:48.425Z,83.94
2019-02-11T01:22:48.412Z,86.43
2019-02-11T01:23:48.402Z,86.05
2019-02-11T01:24:48.410Z,85.74
2019-02-11T01:25:48.387Z,87.76
2019-02-11T01:26:48.477Z,87.45
2019-02-11T01:27:48.360Z,90.14
2019-02-11T01:28:48.352Z,91.91
2019-02-11T01:29:48.342Z,90.70
2019-02-11T01:30:48.331Z,91.33
2019-02-11T01:31:48.319Z,92.05
2019-02-11T01:32:48.325Z,93.20
2019-02-11T01:33:48.296Z,93.14
2019-02-11T01:34:48.288Z,92.93
2019-02-11T01:35:48.277Z,94.07
2019-02-11T01:36:48.265Z,94.12
2019-02-11T01:37:48.255Z,94.22
2019-02-11T01:38:48.259Z,94.74
2019-02-11T01:39:48.232Z,95.30
2019-02-11T01:40:48.219Z,93.74
2019-02-11T01:41:48.213Z,93.33
2019-02-11T01:42:48.203Z,93.64
2019-02-11T01:43:48.194Z,93.23
2019-02-11T01:44:48.197Z,93.01
2019-02-11T01:45:48.168Z,93.33
2019-02-11T01:46:48.159Z,91.41
2019-02-11T01:47:48.149Z,92.39
2019-02-11T01:48:48.140Z,92.80
2019-02-11T01:49:48.127Z,93.12
2019-02-11T01:50:48.137Z,92.49
2019-02-11T01:51:48.108Z,92.95
2019-02-11T01:52:48.142Z,91.04
2019-02-11T01:53:48.091Z,90.41
2019-02-11T01:54:48.077Z,90.10
2019-02-11T01:55:48.060Z,92.39
2019-02-11T01:56:48.069Z,92.70
2019-02-11T01:57:48.047Z,92.54
2019-02-11T01:58:48.036Z,92.85
2019-02-11T01:59:48.022Z,92.54
2019-02-11T02:00:48.012Z,92.43
2019-02-11T02:01:48.003Z,92.95
2019-02-11T02:02:48.006Z,93.37
2019-02-11T02:03:47.981Z,93.10
2019-02-11T02:04:47.972Z,93.52
2019-02-11T02:05:47.968Z,93.41
2019-02-11T02:06:47.952Z,93.52
2019-02-11T02:07:47.942Z,93.93
2019-02-11T02:08:47.949Z,93.93
2019-02-11T02:09:47.920Z,94.45
2019-02-11T02:10:47.910Z,93.62
2019-02-11T02:11:47.900Z,93.41
2019-02-11T02:12:47.891Z,93.31
2019-02-11T02:13:47.879Z,93.10
2019-02-11T02:14:47.888Z,94.35
2019-02-11T02:15:47.859Z,93.93
2019-02-11T02:16:47.846Z,94.24
2019-02-11T02:17:47.837Z,93.93
2019-02-11T02:18:47.828Z,93.73
2019-02-11T02:19:47.815Z,93.73
2019-02-11T02:20:47.821Z,93.83
2019-02-11T02:21:47.796Z,94.24
2019-02-11T02:22:47.786Z,93.20
2019-02-11T02:23:47.774Z,94.24
2019-02-11T02:24:47.761Z,94.35
2019-02-11T02:25:47.754Z,94.35
2019-02-11T02:26:47.759Z,93.93
2019-02-11T02:27:47.731Z,92.89
2019-02-11T02:28:47.728Z,93.20
2019-02-11T02:29:47.761Z,92.02
2019-02-11T02:30:47.704Z,91.77
2019-02-11T02:31:47.693Z,91.66
2019-02-11T02:32:47.701Z,92.29
2019-02-11T02:33:47.671Z,90.62
2019-02-11T02:34:47.660Z,91.66
2019-02-11T02:35:47.650Z,90.41
2019-02-11T02:36:47.639Z,91.35
2019-02-11T02:37:47.630Z,91.66
2019-02-11T02:38:47.632Z,91.56
2019-02-11T02:39:47.610Z,91.46
2019-02-11T02:40:47.594Z,90.06
2019-02-11T02:41:47.588Z,89.33
2019-02-11T02:42:47.581Z,88.67
2019-02-11T02:43:55.133Z,87.84
2019-02-11T02:44:48.574Z,87.01
2019-02-11T02:45:47.561Z,88.15
2019-02-11T02:46:47.538Z,88.46
2019-02-11T02:47:47.530Z,86.69
2019-02-11T02:48:47.522Z,86.24
2019-02-11T02:49:47.508Z,87.07
2019-02-11T02:50:47.511Z,90.33
2019-02-11T02:51:47.486Z,88.46
2019-02-11T02:52:47.476Z,86.49
2019-02-11T02:53:47.466Z,86.07
2019-02-11T02:54:47.453Z,87.94
2019-02-11T02:55:47.450Z,89.50
2019-02-11T02:56:47.447Z,89.43
2019-02-11T02:57:47.424Z,88.56
2019-02-11T02:58:47.412Z,86.90
2019-02-11T02:59:47.403Z,88.25
2019-02-11T03:00:47.397Z,89.18
2019-02-11T03:01:47.381Z,87.73
2019-02-11T03:02:47.383Z,87.84
2019-02-11T03:03:47.357Z,89.75
2019-02-11T03:04:47.351Z,87.84
2019-02-11T03:05:47.390Z,89.18
2019-02-11T03:06:47.330Z,88.87
2019-02-11T03:07:47.321Z,90.33
2019-02-11T03:08:47.563Z,90.47
2019-02-11T03:09:47.355Z,91.62
2019-02-11T03:10:47.287Z,91.31
2019-02-11T03:11:47.272Z,90.79
2019-02-11T03:12:47.274Z,90.89
2019-02-11T03:13:47.261Z,92.55
2019-02-11T03:14:47.258Z,91.97
2019-02-11T03:15:47.231Z,91.10
2019-02-11T03:16:47.223Z,91.20
2019-02-11T03:17:47.210Z,91.31
2019-02-11T03:18:47.203Z,92.35
2019-02-11T03:19:47.190Z,92.29
2019-02-11T03:20:47.192Z,92.18
2019-02-11T03:21:47.171Z,93.12
2019-02-11T03:22:47.158Z,91.35
2019-02-11T03:23:47.147Z,91.46
2019-02-11T03:24:47.138Z,90.47
2019-02-11T03:25:47.135Z,92.18
2019-02-11T03:26:47.132Z,91.25
2019-02-11T03:27:47.109Z,90.58
2019-02-11T03:28:47.096Z,91.10
2019-02-11T03:29:47.086Z,90.31
2019-02-11T03:30:47.080Z,89.12
2019-02-11T03:31:47.072Z,89.64
2019-02-11T03:32:47.091Z,88.40
2019-02-11T03:33:47.054Z,89.75
2019-02-11T03:34:47.044Z,89.75
2019-02-11T03:35:47.025Z,89.75
2019-02-11T03:36:47.010Z,89.27
2019-02-11T03:37:47.001Z,89.54
2019-02-11T03:38:47.004Z,90.83
2019-02-11T03:39:46.982Z,92.70
2019-02-11T03:40:46.968Z,92.70
2019-02-11T03:41:46.960Z,91.66
2019-02-11T03:42:46.954Z,90.14
2019-02-11T03:43:46.943Z,91.66
2019-02-11T03:44:46.940Z,91.91
2019-02-11T03:45:46.918Z,91.46
2019-02-11T03:46:46.908Z,90.00
2019-02-11T03:47:46.896Z,89.48
2019-02-11T03:48:46.892Z,87.88
2019-02-11T03:49:46.876Z,90.37
2019-02-11T03:50:46.876Z,90.83
2019-02-11T03:51:46.857Z,90.20
2019-02-11T03:52:46.847Z,90.31
2019-02-11T03:53:46.831Z,90.20
2019-02-11T03:54:46.828Z,90.10
2019-02-11T03:55:46.815Z,90.52
2019-02-11T03:56:46.822Z,91.46
2019-02-11T03:57:46.791Z,92.29
2019-02-11T03:58:46.786Z,90.52
2019-02-11T03:59:46.777Z,89.58
2019-02-11T04:00:46.760Z,89.58
2019-02-11T04:01:46.752Z,90.72
2019-02-11T04:02:46.762Z,91.35
2019-02-11T04:03:46.735Z,90.35
2019-02-11T04:04:46.718Z,91.50
2019-02-11T04:05:46.708Z,90.97
2019-02-11T04:06:46.702Z,91.39
2019-02-11T04:07:46.695Z,92.27
2019-02-11T04:08:46.692Z,92.89
2019-02-11T04:09:46.663Z,94.45
2019-02-11T04:10:46.658Z,93.87
2019-02-11T04:11:46.654Z,93.24
2019-02-11T04:12:46.638Z,92.79
2019-02-11T04:13:46.629Z,94.49
2019-02-11T04:14:46.630Z,94.18
2019-02-11T04:15:46.603Z,95.64
2019-02-11T04:16:46.597Z,96.00
2019-02-11T04:17:46.588Z,95.64
2019-02-11T04:18:46.572Z,95.23
2019-02-11T04:19:46.566Z,95.43
2019-02-11T04:20:48.537Z,95.75
2019-02-11T04:21:46.543Z,96.16
2019-02-11T04:22:46.534Z,95.12
2019-02-11T04:23:46.527Z,95.64
2019-02-11T04:24:46.509Z,95.54
2019-02-11T04:25:46.501Z,95.58
2019-02-11T04:26:46.507Z,95.58
2019-02-11T04:27:46.483Z,95.33
2019-02-11T04:28:46.476Z,96.00
2019-02-11T04:29:46.463Z,96.62
2019-02-11T04:30:46.448Z,96.73
2019-02-11T04:31:46.442Z,96.00
2019-02-11T04:32:46.443Z,95.85
2019-02-11T04:33:46.421Z,95.12
2019-02-11T04:34:46.409Z,96.06
2019-02-11T04:35:46.398Z,95.64
2019-02-11T04:36:46.388Z,96.21
2019-02-11T04:37:46.379Z,96.52
2019-02-11T04:38:46.385Z,96.31
2019-02-11T04:39:46.356Z,95.89
2019-02-11T04:40:46.347Z,95.89
2019-02-11T04:41:46.337Z,95.58
2019-02-11T04:42:46.328Z,95.37
2019-02-11T04:43:46.315Z,95.58
2019-02-11T04:44:46.332Z,95.79
2019-02-11T04:45:46.296Z,95.06
2019-02-11T04:46:46.293Z,95.06
2019-02-11T04:47:46.277Z,94.96
2019-02-11T04:48:46.264Z,95.17
2019-02-11T04:49:46.254Z,95.62
2019-02-11T04:50:46.259Z,96.00
2019-02-11T04:51:46.235Z,96.11
2019-02-11T04:52:46.224Z,95.10
2019-02-11T04:53:46.212Z,94.23
2019-02-11T04:54:46.204Z,94.54
2019-02-11T04:55:46.192Z,93.29
2019-02-11T04:56:46.192Z,93.24
2019-02-11T04:57:46.170Z,93.46
2019-02-11T04:58:46.167Z,93.24
2019-02-11T04:59:46.154Z,93.29
2019-02-11T05:00:46.138Z,92.10
2019-02-11T05:01:46.129Z,91.58
2019-02-11T05:02:46.141Z,92.41
2019-02-11T05:03:46.106Z,92.52
2019-02-11T05:04:46.098Z,92.41
2019-02-11T05:05:46.085Z,92.62
2019-02-11T05:06:46.079Z,93.35
2019-02-11T05:07:46.070Z,92.62
2019-02-11T05:08:46.082Z,92.21
2019-02-11T05:09:46.045Z,90.70
2019-02-11T05:10:46.032Z,91.75
2019-02-11T05:11:46.020Z,91.33
2019-02-11T05:12:46.015Z,92.83
2019-02-11T05:13:46.007Z,91.78
2019-02-11T05:14:46.006Z,90.81
2019-02-11T05:15:45.984Z,91.78
2019-02-11T05:16:45.974Z,91.58
2019-02-11T05:17:45.989Z,90.50
2019-02-11T05:18:45.949Z,91.43
2019-02-11T05:19:45.944Z,91.64
2019-02-11T05:20:45.946Z,90.91
2019-02-11T05:21:45.933Z,90.60
2019-02-11T05:22:45.966Z,90.60
2019-02-11T05:23:45.906Z,92.83
2019-02-11T05:24:45.889Z,92.41
2019-02-11T05:25:45.902Z,91.12
2019-02-11T05:26:45.930Z,92.52
2019-02-11T05:27:45.861Z,92.93
2019-02-11T05:29:37.184Z,90.60
2019-02-11T05:30:37.179Z,91.75
2019-02-11T05:31:37.182Z,92.93
2019-02-11T05:32:37.189Z,92.21
2019-02-11T05:33:37.148Z,93.31
2019-02-11T05:34:37.150Z,93.14
2019-02-11T05:35:37.128Z,90.50
2019-02-11T05:36:37.118Z,90.60
2019-02-11T05:37:37.106Z,91.12
2019-02-11T05:38:37.122Z,90.50
2019-02-11T05:39:37.084Z,90.70
2019-02-11T05:40:37.076Z,90.50
2019-02-11T05:41:37.069Z,89.87
2019-02-11T05:42:37.059Z,89.45
2019-02-11T05:43:37.040Z,90.50
2019-02-11T05:44:37.043Z,88.48
2019-02-11T05:45:37.020Z,90.14
2019-02-11T05:46:37.024Z,90.04
2019-02-11T05:47:36.997Z,90.45
2019-02-11T05:48:36.998Z,91.71
2019-02-11T05:49:36.982Z,91.75
2019-02-11T05:50:36.986Z,90.19
2019-02-11T05:51:36.958Z,91.12
2019-02-11T05:52:36.949Z,90.70
2019-02-11T05:53:36.944Z,91.85
2019-02-11T05:54:36.934Z,92.47
2019-02-11T05:55:36.964Z,93.52
2019-02-11T05:56:36.925Z,93.93
2019-02-11T05:57:36.908Z,93.04
2019-02-11T05:58:36.887Z,93.04
2019-02-11T05:59:36.879Z,92.79
2019-02-11T06:00:36.873Z,91.43
2019-02-11T06:01:36.853Z,91.28
2019-02-11T06:02:36.862Z,92.27
2019-02-11T06:03:36.875Z,91.22
2019-02-11T06:04:36.823Z,90.19
2019-02-11T06:05:36.814Z,89.73
2019-02-11T06:06:36.801Z,90.45
2019-02-11T06:07:36.794Z,90.50
2019-02-11T06:08:36.798Z,90.08
2019-02-11T06:09:36.778Z,91.18
2019-02-11T06:10:36.759Z,90.50
2019-02-11T06:11:36.750Z,90.66
2019-02-11T06:12:36.741Z,90.14
2019-02-11T06:13:36.730Z,90.70
2019-02-11T06:14:36.734Z,91.53
2019-02-11T06:15:36.708Z,90.60
2019-02-11T06:16:36.701Z,89.20
2019-02-11T06:17:36.685Z,89.20
2019-02-11T06:18:36.682Z,91.08
2019-02-11T06:19:36.668Z,90.77
2019-02-11T06:20:36.673Z,90.91
2019-02-11T06:21:36.645Z,91.02
2019-02-11T06:22:36.633Z,90.25
2019-02-11T06:23:36.624Z,90.19
2019-02-11T06:24:36.630Z,91.18
2019-02-11T06:25:36.602Z,91.33
2019-02-11T06:26:36.620Z,91.53
2019-02-11T06:27:36.582Z,92.47
2019-02-11T06:28:36.575Z,92.37
2019-02-11T06:29:36.561Z,91.53
2019-02-11T06:30:36.548Z,90.91
2019-02-11T06:31:36.549Z,90.35
2019-02-11T06:32:36.572Z,90.45
2019-02-11T06:33:36.520Z,90.91
2019-02-11T06:34:36.512Z,92.37
2019-02-11T06:35:36.505Z,92.85
2019-02-11T06:36:36.487Z,91.50
2019-02-11T06:37:36.480Z,92.22
2019-02-11T06:38:36.485Z,92.06
2019-02-11T06:39:36.458Z,92.79
2019-02-11T06:40:36.445Z,92.37
2019-02-11T06:41:36.441Z,92.47
2019-02-11T06:42:36.425Z,92.79
2019-02-11T06:43:36.415Z,93.35
2019-02-11T06:44:36.428Z,93.10
2019-02-11T06:45:36.399Z,93.77
2019-02-11T06:46:36.390Z,93.46
2019-02-11T06:47:36.374Z,93.35
2019-02-11T06:48:36.364Z,93.73
2019-02-11T06:49:36.351Z,94.60
2019-02-11T06:50:36.361Z,95.12
2019-02-11T06:51:36.332Z,94.18
2019-02-11T06:52:36.322Z,94.70
2019-02-11T06:53:36.317Z,94.60
2019-02-11T06:54:36.301Z,94.92
2019-02-11T06:55:36.290Z,95.54
2019-02-11T06:56:36.300Z,96.06
2019-02-11T06:57:36.272Z,95.95
2019-02-11T06:58:36.261Z,95.79
2019-02-11T06:59:36.245Z,96.79
2019-02-11T07:00:36.239Z,96.48
2019-02-11T07:01:36.229Z,95.95
2019-02-11T07:02:36.236Z,95.54
2019-02-11T07:03:36.210Z,95.75
2019-02-11T07:04:36.197Z,95.48
2019-02-11T07:05:36.192Z,95.06
2019-02-11T07:06:36.184Z,94.81
2019-02-11T07:07:36.771Z,94.29
2019-02-11T07:08:36.171Z,94.18
2019-02-11T07:09:36.193Z,95.64
2019-02-11T07:10:36.149Z,96.06
2019-02-11T07:11:36.137Z,94.81
2019-02-11T07:12:36.139Z,96.26
2019-02-11T07:13:36.115Z,96.69
2019-02-11T07:14:36.111Z,96.16
2019-02-11T07:15:36.085Z,96.58
2019-02-11T07:16:36.075Z,95.43
2019-02-11T07:17:36.066Z,94.08
2019-02-11T07:18:37.170Z,93.46
2019-02-11T07:19:36.066Z,93.31
2019-02-11T07:20:36.056Z,94.35
2019-02-11T07:21:36.024Z,93.93
2019-02-11T07:22:36.013Z,93.10
2019-02-11T07:23:36.000Z,92.99
2019-02-11T07:24:35.997Z,93.62
2019-02-11T07:25:35.981Z,92.99
2019-02-11T07:26:35.984Z,93.05
2019-02-11T07:27:35.959Z,93.31
2019-02-11T07:28:35.946Z,92.95
2019-02-11T07:29:35.941Z,94.35
2019-02-11T07:30:35.936Z,94.20
2019-02-11T07:31:35.918Z,93.52
2019-02-11T07:32:35.924Z,92.89
2019-02-11T07:33:35.898Z,92.85
2019-02-11T07:34:35.889Z,92.33
2019-02-11T07:35:35.876Z,92.33
2019-02-11T07:36:35.869Z,92.64
2019-02-11T07:37:35.865Z,92.22
2019-02-11T07:38:35.870Z,92.43
2019-02-11T07:39:35.834Z,91.71
2019-02-11T07:40:35.832Z,91.71
2019-02-11T07:41:35.818Z,91.71
2019-02-11T07:42:35.815Z,90.72
2019-02-11T07:43:35.794Z,90.00
2019-02-11T07:44:35.842Z,91.66
2019-02-11T07:45:35.777Z,91.56
2019-02-11T07:46:35.789Z,92.29
2019-02-11T07:47:35.760Z,90.62
2019-02-11T07:48:35.750Z,88.43
2019-02-11T07:49:35.735Z,88.33
2019-02-11T07:50:35.768Z,89.37
2019-02-11T07:51:42.139Z,88.40
2019-02-11T07:52:36.707Z,86.67
2019-02-11T07:53:35.698Z,87.98
2019-02-11T07:54:35.697Z,88.60
2019-02-11T07:55:35.674Z,88.71
2019-02-11T07:56:35.709Z,89.95
2019-02-11T07:57:35.655Z,89.43
2019-02-11T07:58:35.646Z,88.09
2019-02-11T07:59:35.630Z,87.46
2019-02-11T08:00:35.633Z,88.09
2019-02-11T08:01:35.617Z,88.09
2019-02-11T08:02:35.611Z,86.63
2019-02-11T08:03:35.586Z,86.52
2019-02-11T08:04:35.575Z,85.80
2019-02-11T08:05:35.579Z,85.28
2019-02-11T08:06:35.555Z,86.21
2019-02-11T08:07:35.550Z,88.09
2019-02-11T08:08:35.563Z,86.83
2019-02-11T08:09:35.525Z,87.77
2019-02-11T08:10:35.505Z,87.98
2019-02-11T08:11:35.501Z,86.63
2019-02-11T08:12:35.486Z,87.15
2019-02-11T08:13:35.473Z,87.15
2019-02-11T08:14:35.479Z,86.73
2019-02-11T08:15:38.613Z,84.86
2019-02-11T08:16:35.476Z,87.04
2019-02-11T08:17:35.432Z,88.25
2019-02-11T08:18:35.435Z,86.52
2019-02-11T08:19:35.431Z,86.59
2019-02-11T08:20:35.437Z,86.80
2019-02-11T08:21:35.390Z,86.27
2019-02-11T08:22:35.380Z,86.80
2019-02-11T08:23:35.380Z,86.07
2019-02-11T08:24:35.367Z,85.24
2019-02-11T08:25:35.348Z,85.96
2019-02-11T08:26:35.362Z,86.69
2019-02-11T08:27:35.326Z,84.72
2019-02-11T08:28:35.323Z,84.92
2019-02-11T08:29:35.303Z,86.49
2019-02-11T08:30:35.303Z,87.01
2019-02-11T08:31:35.284Z,85.86
2019-02-11T08:32:35.284Z,84.30
2019-02-11T08:33:35.262Z,83.84
2019-02-11T08:34:35.262Z,83.53
2019-02-11T08:35:35.246Z,84.47
2019-02-11T08:36:35.236Z,84.84
2019-02-11T08:37:35.228Z,84.84
2019-02-11T08:38:35.224Z,83.18
2019-02-11T08:39:35.202Z,84.12
2019-02-11T08:40:35.194Z,84.64
2019-02-11T08:41:35.180Z,83.91
2019-02-11T08:42:35.186Z,84.39
2019-02-11T08:43:35.163Z,83.50
2019-02-11T08:44:35.161Z,82.87
2019-02-11T08:45:35.138Z,81.38
2019-02-11T08:46:35.129Z,80.59
2019-02-11T08:47:35.116Z,81.52
2019-02-11T08:48:35.119Z,83.25
2019-02-11T08:49:35.093Z,82.46
2019-02-11T08:50:35.097Z,81.38
2019-02-11T08:51:35.074Z,83.36
2019-02-11T08:52:35.065Z,82.73
2019-02-11T08:53:35.060Z,83.36
2019-02-11T08:54:35.045Z,84.25
2019-02-11T08:55:35.030Z,82.70
2019-02-11T08:56:35.038Z,83.53
2019-02-11T08:57:35.017Z,82.18
2019-02-11T08:58:35.001Z,83.46
2019-02-11T08:59:34.989Z,81.49
2019-02-11T09:00:34.984Z,81.35
2019-02-11T09:01:34.966Z,82.18
2019-02-11T09:02:34.969Z,79.90
2019-02-11T09:03:34.944Z,82.24
2019-02-11T09:04:34.937Z,80.62
2019-02-11T09:05:34.938Z,81.14
2019-02-11T09:06:34.930Z,81.24
2019-02-11T09:07:34.921Z,80.52
2019-02-11T09:08:34.905Z,80.41
2019-02-11T09:09:34.882Z,80.73
2019-02-11T09:10:34.873Z,77.92
2019-02-11T09:11:34.864Z,81.20
2019-02-11T09:12:34.850Z,82.03
2019-02-11T09:13:34.841Z,79.48
2019-02-11T09:14:34.849Z,77.89
2019-02-11T09:15:34.818Z,78.75
2019-02-11T09:16:34.818Z,82.55
2019-02-11T09:17:34.800Z,79.06
2019-02-11T09:18:34.792Z,78.41
2019-02-11T09:19:34.779Z,77.99
2019-02-11T09:20:34.791Z,80.79
2019-02-11T09:21:34.756Z,80.96
2019-02-11T09:22:34.744Z,79.34
2019-02-11T09:23:34.735Z,78.47
2019-02-11T09:24:34.971Z,80.47
2019-02-11T09:25:34.712Z,77.54
2019-02-11T09:26:34.715Z,79.51
2019-02-11T09:27:34.690Z,79.16
2019-02-11T09:28:34.681Z,79.41
2019-02-11T09:29:34.683Z,80.40
2019-02-11T09:30:34.661Z,79.06
2019-02-11T09:31:34.651Z,77.09
2019-02-11T09:32:34.655Z,76.15
2019-02-11T09:33:34.628Z,75.53
2019-02-11T09:34:34.618Z,77.29
2019-02-11T09:35:34.604Z,79.64
2019-02-11T09:36:34.596Z,79.13
2019-02-11T09:37:34.582Z,76.71
2019-02-11T09:38:34.582Z,75.05
2019-02-11T09:39:34.563Z,77.01
2019-02-11T09:40:34.563Z,77.12
2019-02-11T09:41:34.540Z,75.74
2019-02-11T09:42:34.537Z,75.74
2019-02-11T09:43:34.518Z,78.05
2019-02-11T09:44:34.524Z,75.26
2019-02-11T09:45:34.498Z,74.53
2019-02-11T09:46:34.489Z,77.50
2019-02-11T09:47:34.476Z,76.67
2019-02-11T09:48:34.467Z,75.22
2019-02-11T09:49:34.454Z,74.88
2019-02-11T09:50:34.470Z,74.74
2019-02-11T09:51:34.437Z,75.09
2019-02-11T09:52:34.428Z,73.77
2019-02-11T09:53:34.418Z,72.33
2019-02-11T09:54:34.405Z,76.53
2019-02-11T09:55:34.395Z,75.63
2019-02-11T09:56:34.410Z,74.19
2019-02-11T09:57:34.373Z,75.32
2019-02-11T09:58:34.370Z,79.02
2019-02-11T09:59:34.364Z,74.60
2019-02-11T10:00:34.342Z,72.74
2019-02-11T10:01:34.338Z,73.98
2019-02-11T10:02:34.334Z,74.71
2019-02-11T10:03:34.306Z,74.60
2019-02-11T10:04:34.293Z,72.85
2019-02-11T10:05:34.283Z,74.08
2019-02-11T10:06:34.274Z,74.29
2019-02-11T10:07:34.261Z,76.05
2019-02-11T10:08:34.272Z,74.81
2019-02-11T10:09:34.245Z,75.63
2019-02-11T10:10:34.244Z,72.74
2019-02-11T10:11:34.220Z,72.71
2019-02-11T10:12:34.209Z,71.39
2019-02-11T10:13:34.200Z,71.81
2019-02-11T10:14:34.202Z,73.77
2019-02-11T10:15:34.177Z,76.67
2019-02-11T10:16:34.167Z,74.74
2019-02-11T10:17:34.158Z,73.08
2019-02-11T10:18:34.141Z,75.57
2019-02-11T10:19:34.135Z,74.22
2019-02-11T10:20:34.136Z,72.77
2019-02-11T10:21:34.122Z,73.81
2019-02-11T10:22:34.103Z,74.63
2019-02-11T10:23:34.091Z,72.88
2019-02-11T10:24:34.077Z,75.57
2019-02-11T10:25:34.071Z,72.77
2019-02-11T10:26:34.074Z,71.63
2019-02-11T10:27:34.045Z,71.94
2019-02-11T10:28:34.036Z,70.08
2019-02-11T10:29:34.020Z,72.15
2019-02-11T10:30:34.013Z,72.98
2019-02-11T10:31:34.013Z,73.91
2019-02-11T10:32:34.010Z,71.12
2019-02-11T10:33:33.981Z,72.94
2019-02-11T10:34:33.972Z,70.77
2019-02-11T10:35:41.842Z,70.26
2019-02-11T10:36:34.950Z,70.47
2019-02-11T10:37:33.939Z,71.70
2019-02-11T10:38:36.428Z,70.26
2019-02-11T10:39:33.917Z,72.85
2019-02-11T10:40:33.907Z,72.02
2019-02-11T10:41:33.895Z,72.39
2019-02-11T10:42:33.885Z,72.29
2019-02-11T10:43:33.882Z,75.46
2019-02-11T10:44:33.880Z,73.05
2019-02-11T10:45:36.551Z,73.71
2019-02-11T10:46:33.843Z,72.19
2019-02-11T10:47:33.830Z,74.22
2019-02-11T10:48:33.821Z,71.85
2019-02-11T10:49:33.811Z,73.09
2019-02-11T10:50:33.815Z,72.36
2019-02-11T10:51:33.788Z,72.16
2019-02-11T10:52:33.776Z,71.57
2019-02-11T10:53:33.767Z,72.71
2019-02-11T10:54:33.757Z,70.06
2019-02-11T10:55:33.744Z,70.37
2019-02-11T10:56:33.747Z,70.16
2019-02-11T10:57:33.721Z,70.16
2019-02-11T10:58:33.709Z,70.92
2019-02-11T10:59:33.699Z,73.19
2019-02-11T11:00:33.692Z,75.36
2019-02-11T11:01:33.691Z,72.16
2019-02-11T11:02:33.691Z,73.39
2019-02-11T11:03:33.661Z,75.36
2019-02-11T11:04:33.651Z,70.61
2019-02-11T11:05:33.638Z,70.81
2019-02-11T11:06:33.627Z,72.57
2019-02-11T11:07:33.614Z,75.26
2019-02-11T11:08:33.624Z,71.64
2019-02-11T11:09:33.595Z,70.92
2019-02-11T11:10:33.597Z,72.05
2019-02-11T11:11:33.577Z,70.81
2019-02-11T11:12:33.569Z,72.36
2019-02-11T11:13:33.553Z,70.50
2019-02-11T11:14:33.560Z,71.84
2019-02-11T11:15:33.532Z,72.26
2019-02-11T11:16:33.528Z,71.95
2019-02-11T11:17:33.512Z,70.40
2019-02-11T11:18:33.499Z,71.64
2019-02-11T11:19:33.489Z,72.64
2019-02-11T11:20:33.493Z,73.19
2019-02-11T11:21:33.468Z,70.61
2019-02-11T11:22:33.460Z,70.09
2019-02-11T11:23:33.449Z,72.19
2019-02-11T11:24:33.435Z,75.88
2019-02-11T11:25:33.426Z,75.57
2019-02-11T11:26:33.433Z,75.53
2019-02-11T11:27:33.401Z,70.78
2019-02-11T11:28:33.394Z,72.02
2019-02-11T11:29:40.501Z,70.23
2019-02-11T11:30:33.372Z,69.82
2019-02-11T11:31:33.359Z,67.99
2019-02-11T11:32:33.368Z,67.85
2019-02-11T11:33:33.349Z,69.82
2019-02-11T11:34:33.334Z,72.16
2019-02-11T11:35:33.333Z,70.47
2019-02-11T11:36:33.307Z,67.10
2019-02-11T11:37:33.301Z,68.58
2019-02-11T11:38:33.304Z,67.72
2019-02-11T11:39:33.286Z,70.61
2019-02-11T11:40:33.275Z,70.20
2019-02-11T11:41:33.292Z,69.13
2019-02-11T11:42:33.243Z,68.62
2019-02-11T11:43:33.240Z,70.17
2019-02-11T11:44:33.247Z,66.73
2019-02-11T11:45:33.211Z,67.52
2019-02-11T11:46:41.484Z,68.29
2019-02-11T11:47:34.625Z,64.14
2019-02-11T11:48:33.183Z,62.68
2019-02-11T11:49:33.182Z,61.20
2019-02-11T11:50:33.173Z,53.33
2019-02-11T11:51:33.147Z,55.00
2019-02-11T11:52:33.141Z,50.23
2019-02-11T11:53:33.134Z,48.90
2019-02-11T11:54:33.118Z,51.86
2019-02-11T11:55:33.114Z,54.11
2019-02-11T11:56:33.112Z,52.75
2019-02-11T11:57:33.095Z,51.15
2019-02-11T11:58:33.090Z,56.15
2019-02-11T11:59:33.074Z,60.21
2019-02-11T12:00:33.071Z,59.39
2019-02-11T12:01:33.050Z,57.75
2019-02-11T12:02:33.066Z,59.07
2019-02-11T12:03:33.085Z,62.54
2019-02-11T12:04:33.013Z,62.75
2019-02-11T12:05:33.002Z,63.81
2019-02-11T12:06:32.988Z,60.72
2019-02-11T12:07:33.028Z,64.64
2019-02-11T12:08:32.993Z,64.78
2019-02-11T12:09:32.966Z,65.09
2019-02-11T12:10:32.956Z,65.38
2019-02-11T12:11:32.933Z,57.64
2019-02-11T12:12:32.922Z,56.38
2019-02-11T12:13:32.917Z,57.61
2019-02-11T12:14:32.925Z,55.10
2019-02-11T12:15:32.901Z,57.03
2019-02-11T12:16:32.894Z,58.75
2019-02-11T12:17:32.871Z,60.86
2019-02-11T12:18:32.862Z,60.40
2019-02-11T12:19:32.867Z,62.95
2019-02-11T12:20:33.913Z,64.11
2019-02-11T12:21:32.843Z,61.40
2019-02-11T12:22:32.818Z,62.63
2019-02-11T12:23:32.810Z,63.60
2019-02-11T12:24:32.804Z,60.89
2019-02-11T12:25:32.798Z,63.90
2019-02-11T12:26:32.808Z,65.03
2019-02-11T12:27:32.768Z,66.67
2019-02-11T12:28:32.757Z,64.72
2019-02-11T12:29:32.742Z,63.00
2019-02-11T12:30:32.735Z,66.61
2019-02-11T12:31:32.721Z,63.93
2019-02-11T12:32:32.745Z,65.40
2019-02-11T12:33:32.701Z,66.22
2019-02-11T12:34:32.696Z,65.09
2019-02-11T12:35:32.703Z,66.84
2019-02-11T12:36:32.665Z,66.12
2019-02-11T12:37:32.653Z,65.58
2019-02-11T12:38:32.659Z,62.90
2019-02-11T12:39:32.640Z,57.49
2019-02-11T12:40:32.621Z,59.67
2019-02-11T12:41:32.626Z,63.81
2019-02-11T12:42:32.605Z,64.07
2019-02-11T12:43:32.594Z,61.43
2019-02-11T12:44:32.600Z,64.83
2019-02-11T12:45:32.573Z,66.19
2019-02-11T12:46:32.559Z,65.06
2019-02-11T12:47:32.563Z,65.64
2019-02-11T12:48:32.547Z,66.60
2019-02-11T12:49:32.528Z,67.66
2019-02-11T12:50:32.529Z,65.76
2019-02-11T12:51:32.507Z,67.58
2019-02-11T12:52:32.508Z,68.37
2019-02-11T12:53:32.483Z,67.85